sensor_id;sensor_type;location;lat;lon;timestamp;temperature;humidity
12761;DHT22;6444;49.742;6.114;2023-01-16T00:01:00;6.20;99.90
12761;DHT22;6444;49.742;6.114;2023-01-16T00:03:27;6.20;99.90
12761;DHT22;6444;49.742;6.114;2023-01-16T00:05:53;6.00;99.90
12761;DHT22;6444;49.742;6.114;2023-01-16T00:08:20;6.00;99.90
12761;DHT22;6444;49.742;6.114;2023-01-16T00:10:47;6.30;99.90
12761;DHT22;6444;49.742;6.114;2023-01-16T00:13:14;6.30;99.90
12761;DHT22;6444;49.742;6.114;2023-01-16T00:15:45;6.30;99.90
12761;DHT22;6444;49.742;6.114;2023-01-16T00:18:10;6.10;99.90
12761;DHT22;6444;49.742;6.114;2023-01-16T00:20:37;5.80;99.90
12761;DHT22;6444;49.742;6.114;2023-01-16T00:23:03;5.90;99.90
12761;DHT22;6444;49.742;6.114;2023-01-16T00:25:31;6.10;99.90
12761;DHT22;6444;49.742;6.114;2023-01-16T00:27:57;6.10;99.90
12761;DHT22;6444;49.742;6.114;2023-01-16T00:30:24;5.90;99.90
12761;DHT22;6444;49.742;6.114;2023-01-16T00:32:51;5.70;99.90
12761;DHT22;6444;49.742;6.114;2023-01-16T00:35:18;5.70;99.90
12761;DHT22;6444;49.742;6.114;2023-01-16T00:37:45;5.60;99.90
12761;DHT22;6444;49.742;6.114;2023-01-16T00:40:11;5.60;99.90
12761;DHT22;6444;49.742;6.114;2023-01-16T00:42:39;5.60;99.90
12761;DHT22;6444;49.742;6.114;2023-01-16T00:45:06;5.60;99.90
12761;DHT22;6444;49.742;6.114;2023-01-16T00:47:32;5.40;99.90
12761;DHT22;6444;49.742;6.114;2023-01-16T00:49:59;5.30;99.90
12761;DHT22;6444;49.742;6.114;2023-01-16T00:52:25;5.30;99.90
12761;DHT22;6444;49.742;6.114;2023-01-16T00:54:52;5.10;99.90
12761;DHT22;6444;49.742;6.114;2023-01-16T00:57:19;5.00;99.90
12761;DHT22;6444;49.742;6.114;2023-01-16T00:59:45;5.00;99.90
12761;DHT22;6444;49.742;6.114;2023-01-16T01:02:12;4.60;99.90
12761;DHT22;6444;49.742;6.114;2023-01-16T01:04:39;4.80;99.90
12761;DHT22;6444;49.742;6.114;2023-01-16T01:07:06;4.70;99.90
12761;DHT22;6444;49.742;6.114;2023-01-16T01:09:33;4.80;99.90
12761;DHT22;6444;49.742;6.114;2023-01-16T01:12:00;4.90;99.90
12761;DHT22;6444;49.742;6.114;2023-01-16T01:14:27;4.90;99.90
12761;DHT22;6444;49.742;6.114;2023-01-16T01:16:53;5.00;99.90
12761;DHT22;6444;49.742;6.114;2023-01-16T01:19:20;5.10;99.90
12761;DHT22;6444;49.742;6.114;2023-01-16T01:21:47;5.10;99.90
12761;DHT22;6444;49.742;6.114;2023-01-16T01:24:14;5.00;99.90
12761;DHT22;6444;49.742;6.114;2023-01-16T01:26:40;5.10;99.90
12761;DHT22;6444;49.742;6.114;2023-01-16T01:29:08;5.10;99.90
12761;DHT22;6444;49.742;6.114;2023-01-16T01:31:34;5.00;99.90
12761;DHT22;6444;49.742;6.114;2023-01-16T01:34:01;4.90;99.90
12761;DHT22;6444;49.742;6.114;2023-01-16T01:36:28;5.20;99.90
12761;DHT22;6444;49.742;6.114;2023-01-16T01:38:55;5.10;99.90
12761;DHT22;6444;49.742;6.114;2023-01-16T01:41:22;5.10;99.90
12761;DHT22;6444;49.742;6.114;2023-01-16T01:43:50;5.10;99.90
12761;DHT22;6444;49.742;6.114;2023-01-16T01:46:26;5.10;99.90
12761;DHT22;6444;49.742;6.114;2023-01-16T01:48:55;5.30;99.90
12761;DHT22;6444;49.742;6.114;2023-01-16T01:51:25;5.40;99.90
12761;DHT22;6444;49.742;6.114;2023-01-16T01:54:00;5.80;99.90
12761;DHT22;6444;49.742;6.114;2023-01-16T01:56:29;5.70;99.90
12761;DHT22;6444;49.742;6.114;2023-01-16T01:58:54;5.70;99.90
12761;DHT22;6444;49.742;6.114;2023-01-16T02:01:21;5.40;99.90
12761;DHT22;6444;49.742;6.114;2023-01-16T02:04:07;5.30;99.90
12761;DHT22;6444;49.742;6.114;2023-01-16T02:06:34;5.60;99.90
12761;DHT22;6444;49.742;6.114;2023-01-16T02:08:58;5.50;99.90
12761;DHT22;6444;49.742;6.114;2023-01-16T02:11:35;5.40;99.90
12761;DHT22;6444;49.742;6.114;2023-01-16T02:14:04;5.50;99.90
12761;DHT22;6444;49.742;6.114;2023-01-16T02:16:30;5.40;99.90
12761;DHT22;6444;49.742;6.114;2023-01-16T02:19:22;5.20;99.90
12761;DHT22;6444;49.742;6.114;2023-01-16T02:38:46;5.20;99.90
12761;DHT22;6444;49.742;6.114;2023-01-16T02:41:12;5.30;99.90
12761;DHT22;6444;49.742;6.114;2023-01-16T02:44:05;5.10;99.90
12761;DHT22;6444;49.742;6.114;2023-01-16T02:46:43;5.10;99.90
12761;DHT22;6444;49.742;6.114;2023-01-16T02:49:10;5.10;99.90
12761;DHT22;6444;49.742;6.114;2023-01-16T02:54:25;5.20;99.90
12761;DHT22;6444;49.742;6.114;2023-01-16T02:56:51;5.10;99.90
12761;DHT22;6444;49.742;6.114;2023-01-16T02:59:17;5.10;99.90
12761;DHT22;6444;49.742;6.114;2023-01-16T03:01:46;5.10;99.90
12761;DHT22;6444;49.742;6.114;2023-01-16T03:07:28;5.00;99.90
12761;DHT22;6444;49.742;6.114;2023-01-16T03:10:20;5.10;99.90
12761;DHT22;6444;49.742;6.114;2023-01-16T03:15:31;4.90;99.90
12761;DHT22;6444;49.742;6.114;2023-01-16T03:23:54;5.00;99.90
12761;DHT22;6444;49.742;6.114;2023-01-16T03:34:18;5.30;99.90
12761;DHT22;6444;49.742;6.114;2023-01-16T03:36:53;5.10;99.90
12761;DHT22;6444;49.742;6.114;2023-01-16T03:39:20;5.40;99.90
12761;DHT22;6444;49.742;6.114;2023-01-16T03:41:45;5.30;99.90
12761;DHT22;6444;49.742;6.114;2023-01-16T03:44:17;5.10;99.90
12761;DHT22;6444;49.742;6.114;2023-01-16T03:46:43;5.00;99.90
12761;DHT22;6444;49.742;6.114;2023-01-16T03:49:11;4.90;99.90
12761;DHT22;6444;49.742;6.114;2023-01-16T03:51:40;4.90;99.90
12761;DHT22;6444;49.742;6.114;2023-01-16T03:54:06;4.90;99.90
12761;DHT22;6444;49.742;6.114;2023-01-16T03:56:34;5.00;99.90
12761;DHT22;6444;49.742;6.114;2023-01-16T03:58:57;5.00;99.90
12761;DHT22;6444;49.742;6.114;2023-01-16T04:01:32;4.90;99.90
12761;DHT22;6444;49.742;6.114;2023-01-16T04:06:37;4.90;99.90
12761;DHT22;6444;49.742;6.114;2023-01-16T04:09:03;5.10;99.90
12761;DHT22;6444;49.742;6.114;2023-01-16T04:11:28;5.50;99.90
12761;DHT22;6444;49.742;6.114;2023-01-16T04:13:56;5.40;99.90
12761;DHT22;6444;49.742;6.114;2023-01-16T04:16:22;5.40;99.90
12761;DHT22;6444;49.742;6.114;2023-01-16T04:18:49;5.20;99.90
12761;DHT22;6444;49.742;6.114;2023-01-16T04:21:16;5.10;99.90
12761;DHT22;6444;49.742;6.114;2023-01-16T04:23:43;5.40;99.90
12761;DHT22;6444;49.742;6.114;2023-01-16T04:26:10;5.30;99.90
12761;DHT22;6444;49.742;6.114;2023-01-16T04:28:36;5.30;99.90
12761;DHT22;6444;49.742;6.114;2023-01-16T04:31:03;5.10;99.90
12761;DHT22;6444;49.742;6.114;2023-01-16T04:33:30;5.20;99.90
12761;DHT22;6444;49.742;6.114;2023-01-16T04:35:57;5.20;99.90
12761;DHT22;6444;49.742;6.114;2023-01-16T04:38:23;5.20;99.90
12761;DHT22;6444;49.742;6.114;2023-01-16T04:40:54;5.00;99.90
12761;DHT22;6444;49.742;6.114;2023-01-16T04:43:20;4.90;99.90
12761;DHT22;6444;49.742;6.114;2023-01-16T04:45:47;4.90;99.90
12761;DHT22;6444;49.742;6.114;2023-01-16T04:48:14;5.10;99.90
12761;DHT22;6444;49.742;6.114;2023-01-16T04:50:40;5.00;99.90
12761;DHT22;6444;49.742;6.114;2023-01-16T04:53:07;5.10;99.90
12761;DHT22;6444;49.742;6.114;2023-01-16T04:55:33;4.90;99.90
12761;DHT22;6444;49.742;6.114;2023-01-16T04:58:01;5.00;99.90
12761;DHT22;6444;49.742;6.114;2023-01-16T05:00:27;5.00;99.90
12761;DHT22;6444;49.742;6.114;2023-01-16T05:02:54;5.00;99.90
12761;DHT22;6444;49.742;6.114;2023-01-16T05:05:21;4.80;99.90
12761;DHT22;6444;49.742;6.114;2023-01-16T05:07:48;4.80;99.90
12761;DHT22;6444;49.742;6.114;2023-01-16T05:10:15;4.80;99.90
12761;DHT22;6444;49.742;6.114;2023-01-16T05:12:41;4.80;99.90
12761;DHT22;6444;49.742;6.114;2023-01-16T05:15:08;4.70;99.90
12761;DHT22;6444;49.742;6.114;2023-01-16T05:17:35;4.70;99.90
12761;DHT22;6444;49.742;6.114;2023-01-16T05:20:02;4.70;99.90
12761;DHT22;6444;49.742;6.114;2023-01-16T05:22:29;4.60;99.90
12761;DHT22;6444;49.742;6.114;2023-01-16T05:24:55;4.50;99.90
12761;DHT22;6444;49.742;6.114;2023-01-16T05:27:23;4.80;99.90
12761;DHT22;6444;49.742;6.114;2023-01-16T05:29:49;4.80;99.90
12761;DHT22;6444;49.742;6.114;2023-01-16T05:32:16;4.80;99.90
12761;DHT22;6444;49.742;6.114;2023-01-16T05:34:43;4.60;99.90
12761;DHT22;6444;49.742;6.114;2023-01-16T05:37:10;4.60;99.90
12761;DHT22;6444;49.742;6.114;2023-01-16T05:39:36;4.70;99.90
12761;DHT22;6444;49.742;6.114;2023-01-16T05:42:03;4.80;99.90
12761;DHT22;6444;49.742;6.114;2023-01-16T05:44:30;4.80;99.90
12761;DHT22;6444;49.742;6.114;2023-01-16T05:46:56;4.80;99.90
12761;DHT22;6444;49.742;6.114;2023-01-16T05:49:23;4.80;99.90
12761;DHT22;6444;49.742;6.114;2023-01-16T05:51:50;4.70;99.90
12761;DHT22;6444;49.742;6.114;2023-01-16T05:54:16;4.80;99.90
12761;DHT22;6444;49.742;6.114;2023-01-16T05:56:43;4.90;99.90
12761;DHT22;6444;49.742;6.114;2023-01-16T05:59:09;4.70;99.90
12761;DHT22;6444;49.742;6.114;2023-01-16T06:01:37;4.50;99.90
12761;DHT22;6444;49.742;6.114;2023-01-16T06:04:03;4.50;99.90
12761;DHT22;6444;49.742;6.114;2023-01-16T06:06:30;4.40;99.90
12761;DHT22;6444;49.742;6.114;2023-01-16T06:08:57;4.50;99.90
12761;DHT22;6444;49.742;6.114;2023-01-16T06:11:23;4.40;99.90
12761;DHT22;6444;49.742;6.114;2023-01-16T06:13:50;4.30;99.90
12761;DHT22;6444;49.742;6.114;2023-01-16T06:16:17;4.00;99.90
12761;DHT22;6444;49.742;6.114;2023-01-16T06:18:43;3.80;99.90
12761;DHT22;6444;49.742;6.114;2023-01-16T06:21:10;3.70;99.90
12761;DHT22;6444;49.742;6.114;2023-01-16T06:23:36;3.80;99.90
12761;DHT22;6444;49.742;6.114;2023-01-16T06:26:03;3.70;99.90
12761;DHT22;6444;49.742;6.114;2023-01-16T06:28:30;3.50;99.90
12761;DHT22;6444;49.742;6.114;2023-01-16T06:30:57;3.50;99.90
12761;DHT22;6444;49.742;6.114;2023-01-16T06:33:24;3.50;99.90
12761;DHT22;6444;49.742;6.114;2023-01-16T06:35:50;3.60;99.90
12761;DHT22;6444;49.742;6.114;2023-01-16T06:38:17;3.60;99.90
12761;DHT22;6444;49.742;6.114;2023-01-16T06:40:44;3.50;99.90
12761;DHT22;6444;49.742;6.114;2023-01-16T06:43:10;3.40;99.90
12761;DHT22;6444;49.742;6.114;2023-01-16T06:45:37;3.30;99.90
12761;DHT22;6444;49.742;6.114;2023-01-16T06:48:03;3.30;99.90
12761;DHT22;6444;49.742;6.114;2023-01-16T06:50:30;3.30;99.90
12761;DHT22;6444;49.742;6.114;2023-01-16T06:52:57;3.10;99.90
12761;DHT22;6444;49.742;6.114;2023-01-16T06:55:24;3.10;99.90
12761;DHT22;6444;49.742;6.114;2023-01-16T06:57:51;3.00;99.90
12761;DHT22;6444;49.742;6.114;2023-01-16T07:00:18;3.10;99.90
12761;DHT22;6444;49.742;6.114;2023-01-16T07:02:50;3.00;99.90
12761;DHT22;6444;49.742;6.114;2023-01-16T07:05:11;3.00;99.90
12761;DHT22;6444;49.742;6.114;2023-01-16T07:07:38;3.10;99.90
12761;DHT22;6444;49.742;6.114;2023-01-16T07:10:05;3.10;99.90
12761;DHT22;6444;49.742;6.114;2023-01-16T07:12:31;3.10;99.90
12761;DHT22;6444;49.742;6.114;2023-01-16T07:14:58;3.10;99.90
12761;DHT22;6444;49.742;6.114;2023-01-16T07:17:42;3.10;99.90
12761;DHT22;6444;49.742;6.114;2023-01-16T07:20:27;3.00;99.90
12761;DHT22;6444;49.742;6.114;2023-01-16T07:23:23;3.20;99.90
12761;DHT22;6444;49.742;6.114;2023-01-16T07:25:45;3.10;99.90
12761;DHT22;6444;49.742;6.114;2023-01-16T07:28:12;3.30;99.90
12761;DHT22;6444;49.742;6.114;2023-01-16T07:30:38;3.20;99.90
12761;DHT22;6444;49.742;6.114;2023-01-16T07:33:05;3.10;99.90
12761;DHT22;6444;49.742;6.114;2023-01-16T07:35:32;3.20;99.90
12761;DHT22;6444;49.742;6.114;2023-01-16T07:37:59;3.30;99.90
12761;DHT22;6444;49.742;6.114;2023-01-16T07:40:32;3.20;99.90
12761;DHT22;6444;49.742;6.114;2023-01-16T07:42:58;3.20;99.90
12761;DHT22;6444;49.742;6.114;2023-01-16T07:45:25;3.20;99.90
12761;DHT22;6444;49.742;6.114;2023-01-16T07:47:52;3.10;99.90
12761;DHT22;6444;49.742;6.114;2023-01-16T07:50:18;3.30;99.90
12761;DHT22;6444;49.742;6.114;2023-01-16T07:52:46;3.40;99.90
12761;DHT22;6444;49.742;6.114;2023-01-16T07:55:13;3.30;99.90
12761;DHT22;6444;49.742;6.114;2023-01-16T07:57:40;3.30;99.90
12761;DHT22;6444;49.742;6.114;2023-01-16T08:00:08;3.20;99.90
12761;DHT22;6444;49.742;6.114;2023-01-16T08:02:36;3.20;99.90
12761;DHT22;6444;49.742;6.114;2023-01-16T08:05:03;3.40;99.90
12761;DHT22;6444;49.742;6.114;2023-01-16T08:07:31;3.50;99.90
12761;DHT22;6444;49.742;6.114;2023-01-16T08:09:57;3.50;99.90
12761;DHT22;6444;49.742;6.114;2023-01-16T08:12:24;3.60;99.90
12761;DHT22;6444;49.742;6.114;2023-01-16T08:14:52;3.80;99.90
12761;DHT22;6444;49.742;6.114;2023-01-16T08:17:19;3.80;99.90
12761;DHT22;6444;49.742;6.114;2023-01-16T08:19:46;3.80;99.90
12761;DHT22;6444;49.742;6.114;2023-01-16T08:22:12;3.80;99.90
12761;DHT22;6444;49.742;6.114;2023-01-16T08:24:39;3.80;99.90
12761;DHT22;6444;49.742;6.114;2023-01-16T08:27:06;3.80;99.90
12761;DHT22;6444;49.742;6.114;2023-01-16T08:29:32;3.80;99.90
12761;DHT22;6444;49.742;6.114;2023-01-16T08:31:59;3.80;99.90
12761;DHT22;6444;49.742;6.114;2023-01-16T08:34:26;3.80;99.90
12761;DHT22;6444;49.742;6.114;2023-01-16T08:36:52;3.90;99.90
12761;DHT22;6444;49.742;6.114;2023-01-16T08:39:19;3.90;99.90
12761;DHT22;6444;49.742;6.114;2023-01-16T08:41:46;4.10;99.90
12761;DHT22;6444;49.742;6.114;2023-01-16T08:44:31;4.00;99.90
12761;DHT22;6444;49.742;6.114;2023-01-16T08:47:20;4.10;99.90
12761;DHT22;6444;49.742;6.114;2023-01-16T08:50:03;4.10;99.90
12761;DHT22;6444;49.742;6.114;2023-01-16T08:52:48;4.30;99.90
12761;DHT22;6444;49.742;6.114;2023-01-16T08:55:15;4.30;99.90
12761;DHT22;6444;49.742;6.114;2023-01-16T08:57:42;4.50;99.90
12761;DHT22;6444;49.742;6.114;2023-01-16T09:00:08;4.60;99.90
12761;DHT22;6444;49.742;6.114;2023-01-16T09:02:35;4.60;99.90
12761;DHT22;6444;49.742;6.114;2023-01-16T09:05:02;4.80;99.90
12761;DHT22;6444;49.742;6.114;2023-01-16T09:07:28;4.80;99.90
12761;DHT22;6444;49.742;6.114;2023-01-16T09:09:55;4.70;99.90
12761;DHT22;6444;49.742;6.114;2023-01-16T09:12:22;4.60;99.90
12761;DHT22;6444;49.742;6.114;2023-01-16T09:15:08;4.90;99.90
12761;DHT22;6444;49.742;6.114;2023-01-16T09:17:34;4.80;99.90
12761;DHT22;6444;49.742;6.114;2023-01-16T09:20:01;4.80;99.90
12761;DHT22;6444;49.742;6.114;2023-01-16T09:22:27;4.90;99.90
12761;DHT22;6444;49.742;6.114;2023-01-16T09:24:54;4.90;99.90
12761;DHT22;6444;49.742;6.114;2023-01-16T09:27:21;4.90;99.90
12761;DHT22;6444;49.742;6.114;2023-01-16T09:29:47;5.00;99.90
12761;DHT22;6444;49.742;6.114;2023-01-16T09:32:14;5.20;99.90
12761;DHT22;6444;49.742;6.114;2023-01-16T09:34:41;5.30;99.90
12761;DHT22;6444;49.742;6.114;2023-01-16T09:37:07;5.30;99.90
12761;DHT22;6444;49.742;6.114;2023-01-16T09:39:34;5.30;99.90
12761;DHT22;6444;49.742;6.114;2023-01-16T09:45:20;5.40;99.90
12761;DHT22;6444;49.742;6.114;2023-01-16T09:47:36;5.20;99.90
12761;DHT22;6444;49.742;6.114;2023-01-16T09:52:45;5.40;99.90
12761;DHT22;6444;49.742;6.114;2023-01-16T09:55:38;5.40;99.90
12761;DHT22;6444;49.742;6.114;2023-01-16T09:58:20;5.40;99.90
12761;DHT22;6444;49.742;6.114;2023-01-16T10:01:04;5.60;99.90
12761;DHT22;6444;49.742;6.114;2023-01-16T10:03:30;5.70;99.90
12761;DHT22;6444;49.742;6.114;2023-01-16T10:06:03;5.60;99.90
12761;DHT22;6444;49.742;6.114;2023-01-16T10:08:30;5.60;99.90
12761;DHT22;6444;49.742;6.114;2023-01-16T10:21:51;5.50;99.90
12761;DHT22;6444;49.742;6.114;2023-01-16T10:27:00;5.60;99.90
12761;DHT22;6444;49.742;6.114;2023-01-16T10:29:33;5.30;99.90
12761;DHT22;6444;49.742;6.114;2023-01-16T10:32:24;5.10;99.90
12761;DHT22;6444;49.742;6.114;2023-01-16T10:35:03;4.70;99.90
12761;DHT22;6444;49.742;6.114;2023-01-16T10:37:32;4.60;99.90
12761;DHT22;6444;49.742;6.114;2023-01-16T10:39:59;4.50;99.90
12761;DHT22;6444;49.742;6.114;2023-01-16T10:42:32;4.50;99.90
12761;DHT22;6444;49.742;6.114;2023-01-16T10:45:23;4.40;99.90
12761;DHT22;6444;49.742;6.114;2023-01-16T10:48:12;4.60;99.90
12761;DHT22;6444;49.742;6.114;2023-01-16T10:50:57;4.60;99.90
12761;DHT22;6444;49.742;6.114;2023-01-16T10:53:23;4.40;99.90
12761;DHT22;6444;49.742;6.114;2023-01-16T10:55:50;4.40;99.90
12761;DHT22;6444;49.742;6.114;2023-01-16T10:58:26;4.20;99.90
12761;DHT22;6444;49.742;6.114;2023-01-16T11:01:00;4.20;99.90
12761;DHT22;6444;49.742;6.114;2023-01-16T11:03:38;4.10;99.90
12761;DHT22;6444;49.742;6.114;2023-01-16T11:06:11;4.30;99.90
12761;DHT22;6444;49.742;6.114;2023-01-16T11:08:36;4.20;99.90
12761;DHT22;6444;49.742;6.114;2023-01-16T11:11:03;4.30;99.90
12761;DHT22;6444;49.742;6.114;2023-01-16T11:13:30;4.30;99.90
12761;DHT22;6444;49.742;6.114;2023-01-16T11:16:19;4.30;99.90
12761;DHT22;6444;49.742;6.114;2023-01-16T11:19:18;4.60;99.90
12761;DHT22;6444;49.742;6.114;2023-01-16T11:21:44;4.60;99.90
12761;DHT22;6444;49.742;6.114;2023-01-16T11:24:14;4.40;99.90
12761;DHT22;6444;49.742;6.114;2023-01-16T11:26:50;4.50;99.90
12761;DHT22;6444;49.742;6.114;2023-01-16T11:29:08;4.60;99.90
12761;DHT22;6444;49.742;6.114;2023-01-16T11:31:33;4.70;99.90
12761;DHT22;6444;49.742;6.114;2023-01-16T11:34:03;4.70;99.90
12761;DHT22;6444;49.742;6.114;2023-01-16T11:36:33;4.60;99.90
12761;DHT22;6444;49.742;6.114;2023-01-16T11:38:59;4.70;99.90
12761;DHT22;6444;49.742;6.114;2023-01-16T11:41:32;4.70;99.90
12761;DHT22;6444;49.742;6.114;2023-01-16T11:46:49;4.80;99.90
12761;DHT22;6444;49.742;6.114;2023-01-16T11:49:23;4.80;99.90
12761;DHT22;6444;49.742;6.114;2023-01-16T11:51:48;4.80;99.90
12761;DHT22;6444;49.742;6.114;2023-01-16T11:54:14;4.90;99.90
12761;DHT22;6444;49.742;6.114;2023-01-16T11:57:00;4.80;99.90
12761;DHT22;6444;49.742;6.114;2023-01-16T12:02:13;4.90;99.90
12761;DHT22;6444;49.742;6.114;2023-01-16T12:05:10;4.80;99.90
12761;DHT22;6444;49.742;6.114;2023-01-16T12:13:09;5.00;99.90
12761;DHT22;6444;49.742;6.114;2023-01-16T12:21:38;5.00;99.90
12761;DHT22;6444;49.742;6.114;2023-01-16T12:26:34;5.40;99.90
12761;DHT22;6444;49.742;6.114;2023-01-16T12:29:09;5.40;99.90
12761;DHT22;6444;49.742;6.114;2023-01-16T12:34:09;5.40;99.90
12761;DHT22;6444;49.742;6.114;2023-01-16T12:39:19;5.60;99.90
12761;DHT22;6444;49.742;6.114;2023-01-16T12:41:45;5.50;99.90
12761;DHT22;6444;49.742;6.114;2023-01-16T12:44:31;5.60;99.90
12761;DHT22;6444;49.742;6.114;2023-01-16T12:52:47;5.10;99.90
12761;DHT22;6444;49.742;6.114;2023-01-16T12:55:29;5.30;99.90
12761;DHT22;6444;49.742;6.114;2023-01-16T12:58:14;5.20;99.90
12761;DHT22;6444;49.742;6.114;2023-01-16T13:00:45;5.10;99.90
12761;DHT22;6444;49.742;6.114;2023-01-16T13:03:16;5.00;99.90
12761;DHT22;6444;49.742;6.114;2023-01-16T13:05:39;5.00;99.90
12761;DHT22;6444;49.742;6.114;2023-01-16T13:08:11;5.00;99.90
12761;DHT22;6444;49.742;6.114;2023-01-16T13:10:36;5.30;99.90
12761;DHT22;6444;49.742;6.114;2023-01-16T13:13:22;5.20;99.90
12761;DHT22;6444;49.742;6.114;2023-01-16T13:15:47;5.00;99.90
12761;DHT22;6444;49.742;6.114;2023-01-16T13:18:17;4.50;99.90
12761;DHT22;6444;49.742;6.114;2023-01-16T13:20:41;4.50;99.90
12761;DHT22;6444;49.742;6.114;2023-01-16T13:23:20;4.50;99.90
12761;DHT22;6444;49.742;6.114;2023-01-16T13:25:43;4.80;99.90
12761;DHT22;6444;49.742;6.114;2023-01-16T13:28:24;4.70;99.90
12761;DHT22;6444;49.742;6.114;2023-01-16T13:30:47;4.80;99.90
12761;DHT22;6444;49.742;6.114;2023-01-16T13:33:17;4.80;99.90
12761;DHT22;6444;49.742;6.114;2023-01-16T13:38:40;4.70;99.90
12761;DHT22;6444;49.742;6.114;2023-01-16T13:44:15;4.60;99.90
12761;DHT22;6444;49.742;6.114;2023-01-16T13:47:11;4.80;99.90
12761;DHT22;6444;49.742;6.114;2023-01-16T13:49:34;5.00;99.90
12761;DHT22;6444;49.742;6.114;2023-01-16T13:52:01;5.10;99.90
12761;DHT22;6444;49.742;6.114;2023-01-16T13:54:42;5.20;99.90
12761;DHT22;6444;49.742;6.114;2023-01-16T13:57:18;5.20;99.90
12761;DHT22;6444;49.742;6.114;2023-01-16T13:59:50;5.30;99.90
12761;DHT22;6444;49.742;6.114;2023-01-16T14:02:42;4.90;99.90
12761;DHT22;6444;49.742;6.114;2023-01-16T14:11:37;4.80;99.90
12761;DHT22;6444;49.742;6.114;2023-01-16T14:14:24;4.70;99.90
12761;DHT22;6444;49.742;6.114;2023-01-16T14:16:47;4.50;99.90
12761;DHT22;6444;49.742;6.114;2023-01-16T14:21:41;4.60;99.90
12761;DHT22;6444;49.742;6.114;2023-01-16T14:24:18;4.50;99.90
12761;DHT22;6444;49.742;6.114;2023-01-16T14:26:58;4.50;99.90
12761;DHT22;6444;49.742;6.114;2023-01-16T14:29:38;4.50;99.90
12761;DHT22;6444;49.742;6.114;2023-01-16T14:32:15;4.50;99.90
12761;DHT22;6444;49.742;6.114;2023-01-16T14:34:33;4.70;99.90
12761;DHT22;6444;49.742;6.114;2023-01-16T14:37:05;4.70;99.90
12761;DHT22;6444;49.742;6.114;2023-01-16T14:39:46;4.90;99.90
12761;DHT22;6444;49.742;6.114;2023-01-16T14:42:26;5.00;99.90
12761;DHT22;6444;49.742;6.114;2023-01-16T14:48:05;4.70;99.90
12761;DHT22;6444;49.742;6.114;2023-01-16T14:50:50;4.60;99.90
12761;DHT22;6444;49.742;6.114;2023-01-16T14:53:29;4.60;99.90
12761;DHT22;6444;49.742;6.114;2023-01-16T14:56:20;4.50;99.90
12761;DHT22;6444;49.742;6.114;2023-01-16T15:01:38;4.60;99.90
12761;DHT22;6444;49.742;6.114;2023-01-16T15:04:21;4.50;99.90
12761;DHT22;6444;49.742;6.114;2023-01-16T15:06:48;4.60;99.90
12761;DHT22;6444;49.742;6.114;2023-01-16T15:09:16;4.80;99.90
12761;DHT22;6444;49.742;6.114;2023-01-16T15:11:50;4.60;99.90
12761;DHT22;6444;49.742;6.114;2023-01-16T15:14:16;4.50;99.90
12761;DHT22;6444;49.742;6.114;2023-01-16T15:17:21;4.50;99.90
12761;DHT22;6444;49.742;6.114;2023-01-16T15:22:57;4.30;99.90
12761;DHT22;6444;49.742;6.114;2023-01-16T15:28:28;4.30;99.90
12761;DHT22;6444;49.742;6.114;2023-01-16T15:30:52;4.20;99.90
12761;DHT22;6444;49.742;6.114;2023-01-16T15:33:28;4.30;99.90
12761;DHT22;6444;49.742;6.114;2023-01-16T15:36:17;4.50;99.90
12761;DHT22;6444;49.742;6.114;2023-01-16T15:38:55;4.50;99.90
12761;DHT22;6444;49.742;6.114;2023-01-16T15:41:21;4.50;99.90
12761;DHT22;6444;49.742;6.114;2023-01-16T15:43:47;4.50;99.90
12761;DHT22;6444;49.742;6.114;2023-01-16T15:46:29;4.60;99.90
12761;DHT22;6444;49.742;6.114;2023-01-16T15:49:24;4.70;99.90
12761;DHT22;6444;49.742;6.114;2023-01-16T15:51:52;4.60;99.90
12761;DHT22;6444;49.742;6.114;2023-01-16T15:54:18;4.60;99.90
12761;DHT22;6444;49.742;6.114;2023-01-16T15:56:46;5.30;99.90
12761;DHT22;6444;49.742;6.114;2023-01-16T15:59:25;5.20;99.90
12761;DHT22;6444;49.742;6.114;2023-01-16T16:01:50;5.10;99.90
12761;DHT22;6444;49.742;6.114;2023-01-16T16:04:18;5.00;99.90
12761;DHT22;6444;49.742;6.114;2023-01-16T16:06:44;5.00;99.90
12761;DHT22;6444;49.742;6.114;2023-01-16T16:09:16;4.80;99.90
12761;DHT22;6444;49.742;6.114;2023-01-16T16:11:40;5.10;99.90
12761;DHT22;6444;49.742;6.114;2023-01-16T16:14:28;5.10;99.90
12761;DHT22;6444;49.742;6.114;2023-01-16T16:17:25;4.90;99.90
12761;DHT22;6444;49.742;6.114;2023-01-16T16:20:35;4.50;99.90
12761;DHT22;6444;49.742;6.114;2023-01-16T16:25:49;4.10;99.90
12761;DHT22;6444;49.742;6.114;2023-01-16T16:28:25;4.10;99.90
12761;DHT22;6444;49.742;6.114;2023-01-16T16:30:58;4.30;99.90
12761;DHT22;6444;49.742;6.114;2023-01-16T16:33:20;4.00;99.90
12761;DHT22;6444;49.742;6.114;2023-01-16T16:35:50;3.90;99.90
12761;DHT22;6444;49.742;6.114;2023-01-16T16:38:17;4.10;99.90
12761;DHT22;6444;49.742;6.114;2023-01-16T16:40:43;4.20;99.90
12761;DHT22;6444;49.742;6.114;2023-01-16T16:43:10;4.20;99.90
12761;DHT22;6444;49.742;6.114;2023-01-16T16:45:37;4.20;99.90
12761;DHT22;6444;49.742;6.114;2023-01-16T16:48:21;4.30;99.90
12761;DHT22;6444;49.742;6.114;2023-01-16T16:50:46;4.20;99.90
12761;DHT22;6444;49.742;6.114;2023-01-16T16:53:13;4.10;99.90
12761;DHT22;6444;49.742;6.114;2023-01-16T16:55:40;4.10;99.90
12761;DHT22;6444;49.742;6.114;2023-01-16T16:58:12;4.30;99.90
12761;DHT22;6444;49.742;6.114;2023-01-16T17:00:33;4.30;99.90
12761;DHT22;6444;49.742;6.114;2023-01-16T17:03:13;4.60;99.90
12761;DHT22;6444;49.742;6.114;2023-01-16T17:05:39;4.50;99.90
12761;DHT22;6444;49.742;6.114;2023-01-16T17:08:13;4.30;99.90
12761;DHT22;6444;49.742;6.114;2023-01-16T17:10:42;4.20;99.90
12761;DHT22;6444;49.742;6.114;2023-01-16T17:13:12;4.30;99.90
12761;DHT22;6444;49.742;6.114;2023-01-16T17:15:39;4.60;99.90
12761;DHT22;6444;49.742;6.114;2023-01-16T17:18:09;4.70;99.90
12761;DHT22;6444;49.742;6.114;2023-01-16T17:20:37;4.50;99.90
12761;DHT22;6444;49.742;6.114;2023-01-16T17:23:14;4.50;99.90
12761;DHT22;6444;49.742;6.114;2023-01-16T17:25:42;4.40;99.90
12761;DHT22;6444;49.742;6.114;2023-01-16T17:28:16;4.50;99.90
12761;DHT22;6444;49.742;6.114;2023-01-16T17:30:50;4.50;99.90
12761;DHT22;6444;49.742;6.114;2023-01-16T17:33:21;4.40;99.90
12761;DHT22;6444;49.742;6.114;2023-01-16T17:38:21;4.50;99.90
12761;DHT22;6444;49.742;6.114;2023-01-16T17:40:46;4.60;99.90
12761;DHT22;6444;49.742;6.114;2023-01-16T17:43:22;4.60;99.90
12761;DHT22;6444;49.742;6.114;2023-01-16T17:46:17;4.70;99.90
12761;DHT22;6444;49.742;6.114;2023-01-16T17:48:50;4.80;99.90
12761;DHT22;6444;49.742;6.114;2023-01-16T17:51:17;4.70;99.90
12761;DHT22;6444;49.742;6.114;2023-01-16T17:53:48;4.60;99.90
12761;DHT22;6444;49.742;6.114;2023-01-16T17:56:17;4.50;99.90
12761;DHT22;6444;49.742;6.114;2023-01-16T17:58:54;4.40;99.90
12761;DHT22;6444;49.742;6.114;2023-01-16T18:01:16;4.20;99.90
12761;DHT22;6444;49.742;6.114;2023-01-16T18:03:45;4.30;99.90
12761;DHT22;6444;49.742;6.114;2023-01-16T18:06:08;4.20;99.90
12761;DHT22;6444;49.742;6.114;2023-01-16T18:08:34;4.10;99.90
12761;DHT22;6444;49.742;6.114;2023-01-16T18:11:02;4.20;99.90
12761;DHT22;6444;49.742;6.114;2023-01-16T18:13:28;4.20;99.90
12761;DHT22;6444;49.742;6.114;2023-01-16T18:16:13;4.30;99.90
12761;DHT22;6444;49.742;6.114;2023-01-16T18:18:58;4.40;99.90
12761;DHT22;6444;49.742;6.114;2023-01-16T18:21:25;4.20;99.90
12761;DHT22;6444;49.742;6.114;2023-01-16T18:24:10;4.20;99.90
12761;DHT22;6444;49.742;6.114;2023-01-16T18:26:37;4.50;99.90